sensor_id;sensor_type;location;lat;lon;timestamp;P1;durP1;ratioP1;P2;durP2;ratioP2
19810;SDS011;10065;49.632;8.346;2023-04-08T00:01:41;12.40;;;7.63;;
19810;SDS011;10065;49.632;8.346;2023-04-08T00:04:09;17.27;;;9.17;;
19810;SDS011;10065;49.632;8.346;2023-04-08T00:06:39;13.80;;;8.33;;
19810;SDS011;10065;49.632;8.346;2023-04-08T00:09:07;15.37;;;8.90;;
19810;SDS011;10065;49.632;8.346;2023-04-08T00:11:35;13.43;;;8.47;;
19810;SDS011;10065;49.632;8.346;2023-04-08T00:14:03;15.77;;;9.50;;
19810;SDS011;10065;49.632;8.346;2023-04-08T00:16:31;15.63;;;9.20;;
19810;SDS011;10065;49.632;8.346;2023-04-08T00:19:00;15.10;;;9.27;;
19810;SDS011;10065;49.632;8.346;2023-04-08T00:21:27;15.30;;;9.10;;
19810;SDS011;10065;49.632;8.346;2023-04-08T00:23:57;14.80;;;8.37;;
19810;SDS011;10065;49.632;8.346;2023-04-08T00:26:24;14.23;;;8.87;;
19810;SDS011;10065;49.632;8.346;2023-04-08T00:28:52;15.20;;;9.20;;
19810;SDS011;10065;49.632;8.346;2023-04-08T00:31:20;13.47;;;8.67;;
19810;SDS011;10065;49.632;8.346;2023-04-08T00:33:48;15.30;;;9.27;;
19810;SDS011;10065;49.632;8.346;2023-04-08T00:36:17;15.23;;;9.00;;
19810;SDS011;10065;49.632;8.346;2023-04-08T00:38:44;13.43;;;8.83;;
19810;SDS011;10065;49.632;8.346;2023-04-08T00:41:13;12.10;;;8.10;;
19810;SDS011;10065;49.632;8.346;2023-04-08T00:43:40;12.57;;;8.13;;
19810;SDS011;10065;49.632;8.346;2023-04-08T00:46:08;13.13;;;8.10;;
19810;SDS011;10065;49.632;8.346;2023-04-08T00:48:36;13.00;;;8.13;;
19810;SDS011;10065;49.632;8.346;2023-04-08T00:51:04;13.13;;;8.33;;
19810;SDS011;10065;49.632;8.346;2023-04-08T00:53:33;13.70;;;8.30;;
19810;SDS011;10065;49.632;8.346;2023-04-08T00:56:01;13.80;;;8.10;;
19810;SDS011;10065;49.632;8.346;2023-04-08T00:58:29;15.10;;;9.23;;
19810;SDS011;10065;49.632;8.346;2023-04-08T01:00:58;14.23;;;9.00;;
19810;SDS011;10065;49.632;8.346;2023-04-08T01:03:33;15.27;;;8.30;;
19810;SDS011;10065;49.632;8.346;2023-04-08T01:06:09;14.47;;;8.13;;
19810;SDS011;10065;49.632;8.346;2023-04-08T01:08:43;14.20;;;9.17;;
19810;SDS011;10065;49.632;8.346;2023-04-08T01:11:12;13.73;;;8.70;;
19810;SDS011;10065;49.632;8.346;2023-04-08T01:13:41;14.50;;;8.87;;
19810;SDS011;10065;49.632;8.346;2023-04-08T01:16:12;14.53;;;8.50;;
19810;SDS011;10065;49.632;8.346;2023-04-08T01:18:42;15.17;;;8.73;;
19810;SDS011;10065;49.632;8.346;2023-04-08T01:21:11;13.97;;;9.43;;
19810;SDS011;10065;49.632;8.346;2023-04-08T01:23:45;14.03;;;8.30;;
19810;SDS011;10065;49.632;8.346;2023-04-08T01:26:25;16.90;;;9.30;;
19810;SDS011;10065;49.632;8.346;2023-04-08T01:28:53;16.13;;;9.00;;
19810;SDS011;10065;49.632;8.346;2023-04-08T01:31:24;14.00;;;9.20;;
19810;SDS011;10065;49.632;8.346;2023-04-08T01:33:53;17.33;;;10.53;;
19810;SDS011;10065;49.632;8.346;2023-04-08T01:36:22;16.67;;;10.07;;
19810;SDS011;10065;49.632;8.346;2023-04-08T01:38:51;17.73;;;10.50;;
19810;SDS011;10065;49.632;8.346;2023-04-08T01:41:19;17.17;;;10.00;;
19810;SDS011;10065;49.632;8.346;2023-04-08T01:43:49;17.37;;;8.90;;
19810;SDS011;10065;49.632;8.346;2023-04-08T01:46:18;18.53;;;10.20;;
19810;SDS011;10065;49.632;8.346;2023-04-08T01:48:46;18.53;;;11.00;;
19810;SDS011;10065;49.632;8.346;2023-04-08T01:51:15;18.23;;;11.57;;
19810;SDS011;10065;49.632;8.346;2023-04-08T01:53:44;16.97;;;9.97;;
19810;SDS011;10065;49.632;8.346;2023-04-08T01:56:11;17.57;;;10.57;;
19810;SDS011;10065;49.632;8.346;2023-04-08T01:58:42;17.37;;;10.60;;
19810;SDS011;10065;49.632;8.346;2023-04-08T02:01:17;20.93;;;12.27;;
19810;SDS011;10065;49.632;8.346;2023-04-08T02:03:48;20.20;;;11.50;;
19810;SDS011;10065;49.632;8.346;2023-04-08T02:06:21;17.67;;;10.60;;
19810;SDS011;10065;49.632;8.346;2023-04-08T02:08:49;21.33;;;11.77;;
19810;SDS011;10065;49.632;8.346;2023-04-08T02:11:17;18.33;;;11.23;;
19810;SDS011;10065;49.632;8.346;2023-04-08T02:13:46;19.20;;;10.77;;
19810;SDS011;10065;49.632;8.346;2023-04-08T02:16:15;21.77;;;12.50;;
19810;SDS011;10065;49.632;8.346;2023-04-08T02:18:51;18.50;;;10.57;;
19810;SDS011;10065;49.632;8.346;2023-04-08T02:21:25;18.53;;;11.50;;
19810;SDS011;10065;49.632;8.346;2023-04-08T02:23:58;19.23;;;10.97;;
19810;SDS011;10065;49.632;8.346;2023-04-08T02:26:31;17.77;;;11.07;;
19810;SDS011;10065;49.632;8.346;2023-04-08T02:29:00;19.80;;;11.83;;
19810;SDS011;10065;49.632;8.346;2023-04-08T02:31:31;22.00;;;11.93;;
19810;SDS011;10065;49.632;8.346;2023-04-08T02:34:00;22.57;;;12.90;;
19810;SDS011;10065;49.632;8.346;2023-04-08T02:36:29;20.70;;;12.20;;
19810;SDS011;10065;49.632;8.346;2023-04-08T02:38:59;19.83;;;11.57;;
19810;SDS011;10065;49.632;8.346;2023-04-08T02:41:27;20.77;;;12.50;;
19810;SDS011;10065;49.632;8.346;2023-04-08T02:43:54;20.63;;;11.30;;
19810;SDS011;10065;49.632;8.346;2023-04-08T02:46:22;20.37;;;11.70;;
19810;SDS011;10065;49.632;8.346;2023-04-08T02:48:51;18.77;;;11.83;;
19810;SDS011;10065;49.632;8.346;2023-04-08T02:51:19;19.23;;;10.90;;
19810;SDS011;10065;49.632;8.346;2023-04-08T02:53:47;18.80;;;11.60;;
19810;SDS011;10065;49.632;8.346;2023-04-08T02:56:15;21.03;;;12.43;;
19810;SDS011;10065;49.632;8.346;2023-04-08T02:58:42;19.30;;;11.70;;
19810;SDS011;10065;49.632;8.346;2023-04-08T03:01:10;20.33;;;11.83;;
19810;SDS011;10065;49.632;8.346;2023-04-08T03:03:38;20.57;;;11.47;;
19810;SDS011;10065;49.632;8.346;2023-04-08T03:06:07;21.03;;;11.80;;
19810;SDS011;10065;49.632;8.346;2023-04-08T03:08:35;21.93;;;12.00;;
19810;SDS011;10065;49.632;8.346;2023-04-08T03:11:03;21.40;;;11.93;;
19810;SDS011;10065;49.632;8.346;2023-04-08T03:13:30;23.00;;;12.47;;
19810;SDS011;10065;49.632;8.346;2023-04-08T03:15:59;20.23;;;12.13;;
19810;SDS011;10065;49.632;8.346;2023-04-08T03:18:27;20.43;;;12.30;;
19810;SDS011;10065;49.632;8.346;2023-04-08T03:20:54;21.00;;;12.73;;
19810;SDS011;10065;49.632;8.346;2023-04-08T03:23:24;20.20;;;11.13;;
19810;SDS011;10065;49.632;8.346;2023-04-08T03:25:51;20.60;;;12.40;;
19810;SDS011;10065;49.632;8.346;2023-04-08T03:28:19;24.87;;;13.10;;
19810;SDS011;10065;49.632;8.346;2023-04-08T03:30:47;22.40;;;12.40;;
19810;SDS011;10065;49.632;8.346;2023-04-08T03:33:15;21.33;;;12.43;;
19810;SDS011;10065;49.632;8.346;2023-04-08T03:35:43;19.57;;;12.17;;
19810;SDS011;10065;49.632;8.346;2023-04-08T03:38:11;21.37;;;12.63;;
19810;SDS011;10065;49.632;8.346;2023-04-08T03:40:40;20.87;;;11.73;;
19810;SDS011;10065;49.632;8.346;2023-04-08T03:43:07;21.60;;;11.90;;
19810;SDS011;10065;49.632;8.346;2023-04-08T03:45:36;21.70;;;12.57;;
19810;SDS011;10065;49.632;8.346;2023-04-08T03:48:05;20.90;;;12.97;;
19810;SDS011;10065;49.632;8.346;2023-04-08T03:50:32;19.33;;;10.90;;
19810;SDS011;10065;49.632;8.346;2023-04-08T03:53:00;19.60;;;12.03;;
19810;SDS011;10065;49.632;8.346;2023-04-08T03:55:28;22.10;;;12.97;;
19810;SDS011;10065;49.632;8.346;2023-04-08T03:57:57;22.80;;;12.73;;
19810;SDS011;10065;49.632;8.346;2023-04-08T04:00:24;20.00;;;11.70;;
19810;SDS011;10065;49.632;8.346;2023-04-08T04:02:52;21.70;;;12.63;;
19810;SDS011;10065;49.632;8.346;2023-04-08T04:05:21;21.13;;;13.20;;
19810;SDS011;10065;49.632;8.346;2023-04-08T04:07:48;23.03;;;12.83;;
19810;SDS011;10065;49.632;8.346;2023-04-08T04:10:16;24.00;;;13.27;;
19810;SDS011;10065;49.632;8.346;2023-04-08T04:12:44;21.43;;;13.03;;
19810;SDS011;10065;49.632;8.346;2023-04-08T04:15:14;21.37;;;12.83;;
19810;SDS011;10065;49.632;8.346;2023-04-08T04:17:41;23.53;;;12.83;;
19810;SDS011;10065;49.632;8.346;2023-04-08T04:20:10;23.13;;;12.47;;
19810;SDS011;10065;49.632;8.346;2023-04-08T04:22:38;21.13;;;12.23;;
19810;SDS011;10065;49.632;8.346;2023-04-08T04:25:06;20.83;;;12.90;;
19810;SDS011;10065;49.632;8.346;2023-04-08T04:27:35;20.97;;;12.70;;
19810;SDS011;10065;49.632;8.346;2023-04-08T04:30:03;18.77;;;11.60;;
19810;SDS011;10065;49.632;8.346;2023-04-08T04:32:33;20.57;;;12.20;;
19810;SDS011;10065;49.632;8.346;2023-04-08T04:35:01;23.97;;;12.50;;
19810;SDS011;10065;49.632;8.346;2023-04-08T04:37:29;20.13;;;12.30;;
19810;SDS011;10065;49.632;8.346;2023-04-08T04:39:57;23.37;;;13.17;;
19810;SDS011;10065;49.632;8.346;2023-04-08T04:42:25;21.30;;;11.27;;
19810;SDS011;10065;49.632;8.346;2023-04-08T04:44:52;21.57;;;12.67;;
19810;SDS011;10065;49.632;8.346;2023-04-08T04:47:20;21.37;;;12.40;;
19810;SDS011;10065;49.632;8.346;2023-04-08T04:49:50;19.93;;;12.57;;
19810;SDS011;10065;49.632;8.346;2023-04-08T04:52:17;22.37;;;13.30;;
19810;SDS011;10065;49.632;8.346;2023-04-08T04:54:45;24.13;;;12.57;;
19810;SDS011;10065;49.632;8.346;2023-04-08T04:57:13;19.43;;;11.77;;
19810;SDS011;10065;49.632;8.346;2023-04-08T04:59:41;20.47;;;11.80;;
19810;SDS011;10065;49.632;8.346;2023-04-08T05:02:08;21.20;;;12.87;;
19810;SDS011;10065;49.632;8.346;2023-04-08T05:04:36;21.80;;;12.67;;
19810;SDS011;10065;49.632;8.346;2023-04-08T05:07:05;20.23;;;11.67;;
19810;SDS011;10065;49.632;8.346;2023-04-08T05:09:33;20.80;;;12.87;;
19810;SDS011;10065;49.632;8.346;2023-04-08T05:12:01;20.90;;;11.07;;
19810;SDS011;10065;49.632;8.346;2023-04-08T05:14:29;21.03;;;11.83;;
19810;SDS011;10065;49.632;8.346;2023-04-08T05:16:57;23.67;;;12.23;;
19810;SDS011;10065;49.632;8.346;2023-04-08T05:19:25;18.87;;;12.03;;
19810;SDS011;10065;49.632;8.346;2023-04-08T05:21:52;18.57;;;11.70;;
19810;SDS011;10065;49.632;8.346;2023-04-08T05:24:21;18.27;;;10.83;;
19810;SDS011;10065;49.632;8.346;2023-04-08T05:26:49;21.23;;;11.27;;
19810;SDS011;10065;49.632;8.346;2023-04-08T05:29:18;18.33;;;11.37;;
19810;SDS011;10065;49.632;8.346;2023-04-08T05:31:47;22.60;;;11.83;;
19810;SDS011;10065;49.632;8.346;2023-04-08T05:34:15;20.93;;;11.40;;
19810;SDS011;10065;49.632;8.346;2023-04-08T05:36:47;19.47;;;10.80;;
19810;SDS011;10065;49.632;8.346;2023-04-08T05:39:17;17.77;;;11.33;;
19810;SDS011;10065;49.632;8.346;2023-04-08T05:41:46;16.87;;;10.93;;
19810;SDS011;10065;49.632;8.346;2023-04-08T05:44:14;18.30;;;10.87;;
19810;SDS011;10065;49.632;8.346;2023-04-08T05:46:42;18.70;;;11.10;;
19810;SDS011;10065;49.632;8.346;2023-04-08T05:49:10;15.30;;;10.00;;
19810;SDS011;10065;49.632;8.346;2023-04-08T05:51:38;21.20;;;11.83;;
19810;SDS011;10065;49.632;8.346;2023-04-08T05:54:06;17.17;;;11.00;;
19810;SDS011;10065;49.632;8.346;2023-04-08T05:56:33;18.20;;;10.67;;
19810;SDS011;10065;49.632;8.346;2023-04-08T05:59:03;17.67;;;10.20;;
19810;SDS011;10065;49.632;8.346;2023-04-08T06:01:30;15.97;;;9.77;;
19810;SDS011;10065;49.632;8.346;2023-04-08T06:03:58;15.93;;;10.10;;
19810;SDS011;10065;49.632;8.346;2023-04-08T06:06:26;19.10;;;11.00;;
19810;SDS011;10065;49.632;8.346;2023-04-08T06:08:54;16.67;;;10.40;;
19810;SDS011;10065;49.632;8.346;2023-04-08T06:11:21;16.20;;;10.67;;
19810;SDS011;10065;49.632;8.346;2023-04-08T06:13:49;24.60;;;12.53;;
19810;SDS011;10065;49.632;8.346;2023-04-08T06:16:18;18.50;;;10.50;;
19810;SDS011;10065;49.632;8.346;2023-04-08T06:18:46;21.97;;;11.13;;
19810;SDS011;10065;49.632;8.346;2023-04-08T06:21:15;18.20;;;10.60;;
19810;SDS011;10065;49.632;8.346;2023-04-08T06:23:43;14.17;;;9.30;;
19810;SDS011;10065;49.632;8.346;2023-04-08T06:26:10;18.30;;;10.50;;
19810;SDS011;10065;49.632;8.346;2023-04-08T06:28:38;15.70;;;9.70;;
19810;SDS011;10065;49.632;8.346;2023-04-08T06:31:06;15.83;;;9.30;;
19810;SDS011;10065;49.632;8.346;2023-04-08T06:33:35;16.23;;;9.77;;
19810;SDS011;10065;49.632;8.346;2023-04-08T06:36:03;15.97;;;10.13;;
19810;SDS011;10065;49.632;8.346;2023-04-08T06:38:32;14.93;;;9.43;;
19810;SDS011;10065;49.632;8.346;2023-04-08T06:41:02;15.83;;;9.23;;
19810;SDS011;10065;49.632;8.346;2023-04-08T06:43:30;13.00;;;8.77;;
19810;SDS011;10065;49.632;8.346;2023-04-08T06:45:58;16.87;;;9.87;;
19810;SDS011;10065;49.632;8.346;2023-04-08T06:48:26;15.63;;;9.70;;
19810;SDS011;10065;49.632;8.346;2023-04-08T06:50:57;15.53;;;9.40;;
19810;SDS011;10065;49.632;8.346;2023-04-08T06:53:26;16.43;;;9.53;;
19810;SDS011;10065;49.632;8.346;2023-04-08T06:55:56;14.87;;;9.50;;
19810;SDS011;10065;49.632;8.346;2023-04-08T06:58:24;14.80;;;9.73;;
19810;SDS011;10065;49.632;8.346;2023-04-08T07:00:52;14.40;;;9.43;;
19810;SDS011;10065;49.632;8.346;2023-04-08T07:03:20;16.43;;;9.53;;
19810;SDS011;10065;49.632;8.346;2023-04-08T07:05:48;14.47;;;9.17;;
19810;SDS011;10065;49.632;8.346;2023-04-08T07:08:17;15.23;;;10.30;;
19810;SDS011;10065;49.632;8.346;2023-04-08T07:10:45;14.30;;;9.07;;
19810;SDS011;10065;49.632;8.346;2023-04-08T07:13:16;15.57;;;8.90;;
19810;SDS011;10065;49.632;8.346;2023-04-08T07:15:43;17.63;;;10.73;;
19810;SDS011;10065;49.632;8.346;2023-04-08T07:18:11;17.97;;;10.13;;
19810;SDS011;10065;49.632;8.346;2023-04-08T07:20:39;14.53;;;9.60;;
19810;SDS011;10065;49.632;8.346;2023-04-08T07:23:07;16.67;;;10.90;;
19810;SDS011;10065;49.632;8.346;2023-04-08T07:25:36;16.57;;;9.40;;
19810;SDS011;10065;49.632;8.346;2023-04-08T07:28:04;13.40;;;9.40;;
19810;SDS011;10065;49.632;8.346;2023-04-08T07:30:32;13.47;;;9.77;;
19810;SDS011;10065;49.632;8.346;2023-04-08T07:32:59;14.73;;;10.03;;
19810;SDS011;10065;49.632;8.346;2023-04-08T07:35:27;15.87;;;9.13;;
19810;SDS011;10065;49.632;8.346;2023-04-08T07:37:56;12.73;;;9.37;;
19810;SDS011;10065;49.632;8.346;2023-04-08T07:40:24;15.73;;;9.60;;
19810;SDS011;10065;49.632;8.346;2023-04-08T07:42:53;14.37;;;9.83;;
19810;SDS011;10065;49.632;8.346;2023-04-08T07:45:21;12.87;;;9.70;;
19810;SDS011;10065;49.632;8.346;2023-04-08T07:47:49;12.90;;;9.77;;
19810;SDS011;10065;49.632;8.346;2023-04-08T07:50:16;13.77;;;9.00;;
19810;SDS011;10065;49.632;8.346;2023-04-08T07:52:44;13.90;;;9.63;;
19810;SDS011;10065;49.632;8.346;2023-04-08T07:55:12;13.90;;;9.87;;
19810;SDS011;10065;49.632;8.346;2023-04-08T07:57:39;13.20;;;9.73;;
19810;SDS011;10065;49.632;8.346;2023-04-08T08:00:09;15.17;;;9.30;;
19810;SDS011;10065;49.632;8.346;2023-04-08T08:02:37;16.20;;;10.27;;
19810;SDS011;10065;49.632;8.346;2023-04-08T08:05:06;13.23;;;9.57;;
19810;SDS011;10065;49.632;8.346;2023-04-08T08:07:34;15.17;;;9.43;;
19810;SDS011;10065;49.632;8.346;2023-04-08T08:10:02;12.20;;;9.87;;
19810;SDS011;10065;49.632;8.346;2023-04-08T08:12:30;14.47;;;10.00;;
19810;SDS011;10065;49.632;8.346;2023-04-08T08:14:57;14.90;;;10.47;;
19810;SDS011;10065;49.632;8.346;2023-04-08T08:17:27;17.03;;;10.40;;
19810;SDS011;10065;49.632;8.346;2023-04-08T08:19:56;16.17;;;10.80;;
19810;SDS011;10065;49.632;8.346;2023-04-08T08:22:24;13.13;;;9.73;;
19810;SDS011;10065;49.632;8.346;2023-04-08T08:24:54;16.03;;;10.77;;
19810;SDS011;10065;49.632;8.346;2023-04-08T08:27:23;15.13;;;10.27;;
19810;SDS011;10065;49.632;8.346;2023-04-08T08:29:51;15.57;;;10.90;;
19810;SDS011;10065;49.632;8.346;2023-04-08T08:32:18;12.87;;;10.23;;
19810;SDS011;10065;49.632;8.346;2023-04-08T08:34:47;16.27;;;10.90;;
19810;SDS011;10065;49.632;8.346;2023-04-08T08:37:15;16.53;;;11.67;;
19810;SDS011;10065;49.632;8.346;2023-04-08T08:39:43;15.07;;;10.50;;
19810;SDS011;10065;49.632;8.346;2023-04-08T08:42:17;15.10;;;10.77;;
19810;SDS011;10065;49.632;8.346;2023-04-08T08:44:46;14.90;;;11.53;;
19810;SDS011;10065;49.632;8.346;2023-04-08T08:47:14;15.90;;;11.17;;
19810;SDS011;10065;49.632;8.346;2023-04-08T08:49:42;15.23;;;11.30;;
19810;SDS011;10065;49.632;8.346;2023-04-08T08:52:15;16.53;;;11.30;;
19810;SDS011;10065;49.632;8.346;2023-04-08T08:54:43;16.13;;;11.53;;
19810;SDS011;10065;49.632;8.346;2023-04-08T08:57:17;16.53;;;11.63;;
19810;SDS011;10065;49.632;8.346;2023-04-08T08:59:46;16.70;;;11.83;;
19810;SDS011;10065;49.632;8.346;2023-04-08T09:02:24;15.30;;;11.40;;
19810;SDS011;10065;49.632;8.346;2023-04-08T09:04:57;16.87;;;12.10;;
19810;SDS011;10065;49.632;8.346;2023-04-08T09:07:28;16.90;;;11.17;;
19810;SDS011;10065;49.632;8.346;2023-04-08T09:09:57;15.80;;;11.60;;
19810;SDS011;10065;49.632;8.346;2023-04-08T09:12:25;16.37;;;11.37;;
19810;SDS011;10065;49.632;8.346;2023-04-08T09:15:04;15.77;;;11.07;;
19810;SDS011;10065;49.632;8.346;2023-04-08T09:17:33;14.53;;;10.90;;
19810;SDS011;10065;49.632;8.346;2023-04-08T09:20:05;14.43;;;10.70;;
19810;SDS011;10065;49.632;8.346;2023-04-08T09:22:57;15.00;;;11.10;;
19810;SDS011;10065;49.632;8.346;2023-04-08T09:25:27;14.57;;;10.70;;
19810;SDS011;10065;49.632;8.346;2023-04-08T09:27:55;14.17;;;10.67;;
19810;SDS011;10065;49.632;8.346;2023-04-08T09:30:24;12.87;;;10.57;;
19810;SDS011;10065;49.632;8.346;2023-04-08T09:32:53;14.90;;;11.53;;
19810;SDS011;10065;49.632;8.346;2023-04-08T09:35:22;12.43;;;10.70;;
19810;SDS011;10065;49.632;8.346;2023-04-08T09:37:51;15.43;;;11.30;;
19810;SDS011;10065;49.632;8.346;2023-04-08T09:40:20;17.17;;;11.87;;
19810;SDS011;10065;49.632;8.346;2023-04-08T09:42:51;15.27;;;11.47;;
19810;SDS011;10065;49.632;8.346;2023-04-08T09:45:21;14.23;;;10.63;;
19810;SDS011;10065;49.632;8.346;2023-04-08T09:47:55;15.80;;;11.10;;
19810;SDS011;10065;49.632;8.346;2023-04-08T09:50:27;14.80;;;11.93;;
19810;SDS011;10065;49.632;8.346;2023-04-08T09:53:06;17.67;;;12.67;;
19810;SDS011;10065;49.632;8.346;2023-04-08T09:55:38;14.70;;;11.33;;
19810;SDS011;10065;49.632;8.346;2023-04-08T09:58:07;14.93;;;11.73;;
19810;SDS011;10065;49.632;8.346;2023-04-08T10:00:43;15.40;;;11.40;;
19810;SDS011;10065;49.632;8.346;2023-04-08T10:03:19;16.70;;;12.47;;
19810;SDS011;10065;49.632;8.346;2023-04-08T10:05:54;16.93;;;12.23;;
19810;SDS011;10065;49.632;8.346;2023-04-08T10:08:22;15.00;;;11.00;;
19810;SDS011;10065;49.632;8.346;2023-04-08T10:10:55;16.47;;;11.63;;
19810;SDS011;10065;49.632;8.346;2023-04-08T10:13:23;17.70;;;12.53;;
19810;SDS011;10065;49.632;8.346;2023-04-08T10:16:06;15.10;;;11.90;;
19810;SDS011;10065;49.632;8.346;2023-04-08T10:18:45;16.50;;;12.50;;
19810;SDS011;10065;49.632;8.346;2023-04-08T10:21:34;14.63;;;11.73;;
19810;SDS011;10065;49.632;8.346;2023-04-08T10:24:06;17.60;;;12.13;;
19810;SDS011;10065;49.632;8.346;2023-04-08T10:26:37;15.17;;;11.90;;
19810;SDS011;10065;49.632;8.346;2023-04-08T10:32:01;15.27;;;12.13;;
19810;SDS011;10065;49.632;8.346;2023-04-08T10:34:29;14.87;;;11.23;;
19810;SDS011;10065;49.632;8.346;2023-04-08T10:36:58;14.53;;;11.17;;
19810;SDS011;10065;49.632;8.346;2023-04-08T10:39:27;15.50;;;11.83;;
19810;SDS011;10065;49.632;8.346;2023-04-08T10:41:56;15.37;;;11.23;;
19810;SDS011;10065;49.632;8.346;2023-04-08T10:44:24;15.37;;;11.50;;
19810;SDS011;10065;49.632;8.346;2023-04-08T10:46:53;17.60;;;11.73;;
19810;SDS011;10065;49.632;8.346;2023-04-08T10:49:21;16.43;;;12.43;;
19810;SDS011;10065;49.632;8.346;2023-04-08T10:51:49;13.80;;;11.20;;
19810;SDS011;10065;49.632;8.346;2023-04-08T10:54:17;15.83;;;11.17;;
19810;SDS011;10065;49.632;8.346;2023-04-08T10:56:46;15.83;;;11.33;;
19810;SDS011;10065;49.632;8.346;2023-04-08T10:59:16;13.63;;;10.83;;
19810;SDS011;10065;49.632;8.346;2023-04-08T11:01:53;17.47;;;10.70;;
19810;SDS011;10065;49.632;8.346;2023-04-08T11:04:21;14.80;;;11.27;;
19810;SDS011;10065;49.632;8.346;2023-04-08T11:06:49;13.93;;;10.17;;
19810;SDS011;10065;49.632;8.346;2023-04-08T11:09:18;15.80;;;10.17;;
19810;SDS011;10065;49.632;8.346;2023-04-08T11:11:46;15.10;;;10.90;;
19810;SDS011;10065;49.632;8.346;2023-04-08T11:14:15;13.00;;;10.60;;
19810;SDS011;10065;49.632;8.346;2023-04-08T11:16:48;16.87;;;12.10;;
19810;SDS011;10065;49.632;8.346;2023-04-08T11:19:16;15.93;;;11.03;;
19810;SDS011;10065;49.632;8.346;2023-04-08T11:21:44;16.67;;;10.73;;
19810;SDS011;10065;49.632;8.346;2023-04-08T11:24:13;13.53;;;10.53;;
19810;SDS011;10065;49.632;8.346;2023-04-08T11:26:42;13.60;;;10.53;;
19810;SDS011;10065;49.632;8.346;2023-04-08T11:29:10;14.43;;;10.70;;
19810;SDS011;10065;49.632;8.346;2023-04-08T11:31:43;13.43;;;10.60;;
19810;SDS011;10065;49.632;8.346;2023-04-08T11:34:12;15.37;;;10.80;;
19810;SDS011;10065;49.632;8.346;2023-04-08T11:36:49;12.43;;;10.00;;
19810;SDS011;10065;49.632;8.346;2023-04-08T11:39:17;14.63;;;10.07;;
19810;SDS011;10065;49.632;8.346;2023-04-08T11:41:48;12.57;;;9.40;;
19810;SDS011;10065;49.632;8.346;2023-04-08T11:44:16;12.37;;;8.93;;
19810;SDS011;10065;49.632;8.346;2023-04-08T11:46:52;13.07;;;9.80;;
19810;SDS011;10065;49.632;8.346;2023-04-08T11:49:22;11.67;;;8.93;;
19810;SDS011;10065;49.632;8.346;2023-04-08T11:51:54;13.07;;;9.23;;
19810;SDS011;10065;49.632;8.346;2023-04-08T11:54:26;10.83;;;8.80;;
19810;SDS011;10065;49.632;8.346;2023-04-08T11:56:54;10.90;;;8.40;;
19810;SDS011;10065;49.632;8.346;2023-04-08T11:59:23;12.90;;;9.20;;
19810;SDS011;10065;49.632;8.346;2023-04-08T12:01:55;12.00;;;8.87;;
19810;SDS011;10065;49.632;8.346;2023-04-08T12:04:24;13.00;;;8.67;;
19810;SDS011;10065;49.632;8.346;2023-04-08T12:06:52;11.17;;;8.30;;
19810;SDS011;10065;49.632;8.346;2023-04-08T12:09:23;12.40;;;9.40;;
19810;SDS011;10065;49.632;8.346;2023-04-08T12:11:51;18.37;;;10.17;;
19810;SDS011;10065;49.632;8.346;2023-04-08T12:14:18;13.40;;;9.87;;
19810;SDS011;10065;49.632;8.346;2023-04-08T12:16:47;12.17;;;8.53;;
19810;SDS011;10065;49.632;8.346;2023-04-08T12:19:16;10.07;;;8.10;;
19810;SDS011;10065;49.632;8.346;2023-04-08T12:21:43;10.43;;;8.27;;
19810;SDS011;10065;49.632;8.346;2023-04-08T12:24:11;9.27;;;7.10;;
19810;SDS011;10065;49.632;8.346;2023-04-08T12:26:39;11.00;;;8.10;;
19810;SDS011;10065;49.632;8.346;2023-04-08T12:29:06;10.30;;;7.30;;
19810;SDS011;10065;49.632;8.346;2023-04-08T12:31:36;9.30;;;6.83;;
19810;SDS011;10065;49.632;8.346;2023-04-08T12:34:04;8.17;;;6.60;;
19810;SDS011;10065;49.632;8.346;2023-04-08T12:36:34;11.93;;;7.53;;
19810;SDS011;10065;49.632;8.346;2023-04-08T12:39:01;11.77;;;6.90;;
19810;SDS011;10065;49.632;8.346;2023-04-08T12:41:29;11.27;;;7.35;;
19810;SDS011;10065;49.632;8.346;2023-04-08T12:43:57;10.60;;;7.53;;
19810;SDS011;10065;49.632;8.346;2023-04-08T12:46:24;9.80;;;8.20;;
19810;SDS011;10065;49.632;8.346;2023-04-08T12:48:52;11.60;;;7.93;;
19810;SDS011;10065;49.632;8.346;2023-04-08T12:51:29;13.85;;;8.15;;
19810;SDS011;10065;49.632;8.346;2023-04-08T12:53:59;10.02;;;8.48;;
19810;SDS011;10065;49.632;8.346;2023-04-08T12:56:27;9.82;;;7.32;;
19810;SDS011;10065;49.632;8.346;2023-04-08T12:58:55;8.65;;;7.40;;
19810;SDS011;10065;49.632;8.346;2023-04-08T13:01:22;8.40;;;6.88;;
19810;SDS011;10065;49.632;8.346;2023-04-08T13:03:50;10.00;;;7.82;;
19810;SDS011;10065;49.632;8.346;2023-04-08T13:06:18;10.63;;;7.90;;
19810;SDS011;10065;49.632;8.346;2023-04-08T13:08:46;11.27;;;8.13;;
19810;SDS011;10065;49.632;8.346;2023-04-08T13:11:18;9.70;;;7.57;;
19810;SDS011;10065;49.632;8.346;2023-04-08T13:13:46;9.37;;;7.70;;
19810;SDS011;10065;49.632;8.346;2023-04-08T13:16:14;12.37;;;7.57;;
19810;SDS011;10065;49.632;8.346;2023-04-08T13:18:43;10.00;;;7.40;;
19810;SDS011;10065;49.632;8.346;2023-04-08T13:21:10;9.40;;;7.60;;
19810;SDS011;10065;49.632;8.346;2023-04-08T13:23:38;9.50;;;7.03;;
19810;SDS011;10065;49.632;8.346;2023-04-08T13:26:06;11.50;;;7.90;;
19810;SDS011;10065;49.632;8.346;2023-04-08T13:28:35;10.20;;;8.33;;
19810;SDS011;10065;49.632;8.346;2023-04-08T13:31:21;12.80;;;8.23;;
19810;SDS011;10065;49.632;8.346;2023-04-08T13:33:49;11.70;;;7.73;;
19810;SDS011;10065;49.632;8.346;2023-04-08T13:36:19;12.20;;;7.53;;
19810;SDS011;10065;49.632;8.346;2023-04-08T13:38:46;9.50;;;7.80;;
19810;SDS011;10065;49.632;8.346;2023-04-08T13:41:14;10.17;;;8.03;;
19810;SDS011;10065;49.632;8.346;2023-04-08T13:43:44;11.10;;;8.57;;
19810;SDS011;10065;49.632;8.346;2023-04-08T13:46:11;14.57;;;9.03;;
19810;SDS011;10065;49.632;8.346;2023-04-08T13:48:39;10.87;;;8.17;;
19810;SDS011;10065;49.632;8.346;2023-04-08T13:51:07;11.70;;;8.23;;
19810;SDS011;10065;49.632;8.346;2023-04-08T13:53:35;11.83;;;7.83;;
19810;SDS011;10065;49.632;8.346;2023-04-08T13:56:03;12.50;;;8.20;;
19810;SDS011;10065;49.632;8.346;2023-04-08T13:58:31;9.53;;;7.57;;
19810;SDS011;10065;49.632;8.346;2023-04-08T14:01:00;12.17;;;7.47;;
19810;SDS011;10065;49.632;8.346;2023-04-08T14:03:28;11.93;;;8.40;;
19810;SDS011;10065;49.632;8.346;2023-04-08T14:05:55;12.20;;;8.43;;
19810;SDS011;10065;49.632;8.346;2023-04-08T14:08:26;11.87;;;8.83;;
19810;SDS011;10065;49.632;8.346;2023-04-08T14:10:55;11.80;;;7.73;;
19810;SDS011;10065;49.632;8.346;2023-04-08T14:13:23;10.90;;;7.70;;
19810;SDS011;10065;49.632;8.346;2023-04-08T14:15:50;9.83;;;8.17;;
19810;SDS011;10065;49.632;8.346;2023-04-08T14:18:21;12.30;;;7.50;;
19810;SDS011;10065;49.632;8.346;2023-04-08T14:20:51;10.23;;;7.30;;
19810;SDS011;10065;49.632;8.346;2023-04-08T14:23:19;8.57;;;6.70;;
19810;SDS011;10065;49.632;8.346;2023-04-08T14:25:47;9.77;;;6.67;;
19810;SDS011;10065;49.632;8.346;2023-04-08T14:28:14;9.43;;;6.43;;
19810;SDS011;10065;49.632;8.346;2023-04-08T14:30:42;10.33;;;6.27;;
19810;SDS011;10065;49.632;8.346;2023-04-08T14:33:10;9.07;;;6.20;;
19810;SDS011;10065;49.632;8.346;2023-04-08T14:35:39;8.10;;;5.70;;
19810;SDS011;10065;49.632;8.346;2023-04-08T14:38:07;9.43;;;5.87;;
19810;SDS011;10065;49.632;8.346;2023-04-08T14:40:35;10.67;;;6.37;;
19810;SDS011;10065;49.632;8.346;2023-04-08T14:43:03;10.07;;;5.93;;